createdAt,value
2023-04-04T00:00:39.972Z,2.60
2023-04-04T00:03:07.953Z,3.13
2023-04-04T00:05:36.110Z,3.20
2023-04-04T00:08:04.122Z,2.87
2023-04-04T00:10:33.215Z,2.47
2023-04-04T00:13:01.126Z,3.20
2023-04-04T00:15:28.853Z,3.03
2023-04-04T00:17:57.113Z,2.97
2023-04-04T00:20:25.044Z,3.03
2023-04-04T00:22:52.750Z,3.30
2023-04-04T00:25:20.539Z,3.00
2023-04-04T00:27:50.264Z,2.90
2023-04-04T00:30:17.976Z,3.33
2023-04-04T00:32:45.843Z,3.40
2023-04-04T00:35:13.831Z,3.00
2023-04-04T00:37:41.655Z,3.70
2023-04-04T00:40:10.255Z,3.23
2023-04-04T00:42:38.324Z,3.10
2023-04-04T00:45:08.779Z,3.70
2023-04-04T00:47:38.720Z,3.10
2023-04-04T00:50:07.983Z,2.90
2023-04-04T00:52:35.988Z,3.10
2023-04-04T00:55:04.788Z,3.30
2023-04-04T00:57:34.307Z,3.43
2023-04-04T01:00:05.331Z,3.60
2023-04-04T01:02:34.482Z,3.28
2023-04-04T01:05:03.478Z,3.50
2023-04-04T01:07:32.415Z,3.90
2023-04-04T01:10:00.545Z,3.30
2023-04-04T01:12:28.568Z,3.40
2023-04-04T01:14:56.288Z,3.47
2023-04-04T01:17:25.024Z,4.00
2023-04-04T01:20:10.099Z,3.63
2023-04-04T01:22:39.787Z,3.23
2023-04-04T01:25:08.858Z,2.83
2023-04-04T01:27:38.883Z,2.87
2023-04-04T01:30:08.660Z,3.50
2023-04-04T01:32:40.508Z,3.60
2023-04-04T01:35:29.856Z,3.70
2023-04-04T01:38:08.982Z,4.30
2023-04-04T01:40:38.667Z,3.10
2023-04-04T01:43:08.537Z,3.07
2023-04-04T01:45:36.761Z,3.60
2023-04-04T01:48:04.620Z,3.93
2023-04-04T01:50:32.436Z,3.30
2023-04-04T01:53:00.145Z,3.50
2023-04-04T01:55:27.909Z,3.80
2023-04-04T01:57:55.641Z,2.93
2023-04-04T02:00:24.710Z,3.23
2023-04-04T02:02:52.457Z,3.60
2023-04-04T02:05:20.225Z,3.27
2023-04-04T02:07:51.361Z,3.10
2023-04-04T02:10:19.209Z,4.10
2023-04-04T02:12:47.279Z,2.90
2023-04-04T02:15:15.078Z,3.90
2023-04-04T02:17:48.472Z,2.90
2023-04-04T02:20:17.756Z,3.97
2023-04-04T02:22:52.548Z,4.00
2023-04-04T02:25:20.524Z,3.57
2023-04-04T02:27:48.294Z,3.00
2023-04-04T02:30:16.161Z,3.30
2023-04-04T02:32:45.288Z,3.23
2023-04-04T02:35:13.045Z,3.17
2023-04-04T02:37:40.739Z,3.63
2023-04-04T02:40:09.913Z,3.20
2023-04-04T02:42:37.672Z,3.67
2023-04-04T02:45:06.024Z,3.43
2023-04-04T02:47:34.008Z,3.40
2023-04-04T02:50:03.673Z,3.10
2023-04-04T02:52:31.392Z,3.70
2023-04-04T02:54:59.105Z,3.50
2023-04-04T02:57:27.006Z,3.40
2023-04-04T02:59:54.710Z,3.50
2023-04-04T03:02:24.821Z,3.60
2023-04-04T03:04:53.246Z,3.83
2023-04-04T03:07:22.771Z,3.93
2023-04-04T03:09:50.516Z,4.00
2023-04-04T03:12:21.298Z,4.10
2023-04-04T03:14:49.530Z,3.87
2023-04-04T03:17:18.252Z,3.67
2023-04-04T03:19:46.278Z,3.73
2023-04-04T03:22:14.020Z,3.80
2023-04-04T03:24:43.094Z,4.27
2023-04-04T03:27:11.201Z,3.73
2023-04-04T03:29:39.263Z,3.73
2023-04-04T03:32:07.279Z,3.60
2023-04-04T03:34:35.147Z,3.50
2023-04-04T03:37:02.837Z,4.40
2023-04-04T03:39:30.770Z,4.23
2023-04-04T03:41:59.856Z,3.93
2023-04-04T03:44:27.759Z,4.23
2023-04-04T03:46:55.517Z,5.33
2023-04-04T03:49:23.268Z,3.60
2023-04-04T03:51:51.001Z,4.10
2023-04-04T03:54:18.975Z,4.47
2023-04-04T03:56:46.852Z,4.30
2023-04-04T03:59:16.011Z,3.80
2023-04-04T04:01:43.829Z,4.27
2023-04-04T04:04:11.620Z,5.40
2023-04-04T04:06:39.454Z,5.00
2023-04-04T04:09:07.801Z,4.23
2023-04-04T04:11:36.118Z,4.50
2023-04-04T04:14:03.977Z,4.57
2023-04-04T04:16:33.791Z,4.63
2023-04-04T04:19:01.855Z,3.87
2023-04-04T04:21:29.610Z,4.03
2023-04-04T04:23:57.337Z,4.70
2023-04-04T04:26:25.071Z,4.23
2023-04-04T04:28:52.770Z,4.50
2023-04-04T04:31:24.188Z,3.90
2023-04-04T04:33:53.322Z,3.90
2023-04-04T04:36:21.116Z,3.93
2023-04-04T04:38:49.222Z,4.27
2023-04-04T04:41:16.931Z,3.67
2023-04-04T04:43:44.661Z,3.60
2023-04-04T04:46:12.465Z,4.23
2023-04-04T04:48:40.246Z,4.60
2023-04-04T04:51:09.352Z,4.00
2023-04-04T04:53:37.140Z,3.77
2023-04-04T04:56:05.328Z,3.80
2023-04-04T04:58:33.746Z,4.30
2023-04-04T05:01:01.498Z,3.53
2023-04-04T05:03:29.544Z,4.77
2023-04-04T05:05:57.336Z,3.80
2023-04-04T05:08:26.436Z,4.03
2023-04-04T05:10:55.067Z,3.43
2023-04-04T05:13:23.665Z,3.63
2023-04-04T05:15:51.366Z,3.00
2023-04-04T05:18:19.355Z,2.60
2023-04-04T05:20:52.025Z,2.97
2023-04-04T05:23:19.794Z,3.20
2023-04-04T05:25:53.222Z,3.10
2023-04-04T05:28:21.412Z,2.77
2023-04-04T05:30:49.091Z,2.93
2023-04-04T05:33:16.873Z,3.17
2023-04-04T05:35:44.708Z,2.63
2023-04-04T05:38:13.213Z,3.03
2023-04-04T05:40:41.151Z,3.43
2023-04-04T05:43:10.481Z,3.10
2023-04-04T05:45:40.503Z,2.50
2023-04-04T05:48:09.140Z,2.60
2023-04-04T05:50:36.872Z,3.03
2023-04-04T05:53:04.845Z,2.87
2023-04-04T05:55:32.635Z,3.30
2023-04-04T05:58:00.411Z,2.90
2023-04-04T06:00:29.588Z,3.17
2023-04-04T06:02:58.521Z,2.73
2023-04-04T06:05:26.399Z,2.73
2023-04-04T06:07:54.145Z,2.80
2023-04-04T06:10:22.044Z,2.90
2023-04-04T06:12:49.767Z,3.00
2023-04-04T06:15:17.694Z,3.10
2023-04-04T06:17:46.826Z,4.00
2023-04-04T06:20:14.565Z,3.10
2023-04-04T06:22:42.309Z,3.10
2023-04-04T06:25:11.447Z,2.70
2023-04-04T06:27:39.210Z,3.10
2023-04-04T06:30:10.313Z,3.00
2023-04-04T06:32:39.925Z,4.00
2023-04-04T06:35:10.316Z,4.73
2023-04-04T06:37:38.030Z,3.87
2023-04-04T06:40:07.047Z,3.73
2023-04-04T06:42:34.892Z,4.13
2023-04-04T06:45:03.474Z,4.30
2023-04-04T06:47:31.219Z,3.80
2023-04-04T06:49:58.963Z,3.23
2023-04-04T06:52:28.247Z,3.10
2023-04-04T06:54:56.851Z,3.70
2023-04-04T06:57:24.538Z,3.37
2023-04-04T06:59:52.252Z,4.13
2023-04-04T07:02:20.047Z,3.87
2023-04-04T07:04:47.939Z,6.03
2023-04-04T07:07:16.079Z,3.03
2023-04-04T07:09:45.122Z,3.10
2023-04-04T07:12:12.905Z,3.73
2023-04-04T07:14:40.604Z,3.50
2023-04-04T07:17:21.295Z,4.00
2023-04-04T07:19:51.760Z,2.67
2023-04-04T07:22:19.630Z,3.60
2023-04-04T07:24:49.297Z,3.53
2023-04-04T07:27:17.008Z,3.57
2023-04-04T07:29:44.722Z,4.40
2023-04-04T07:32:12.477Z,3.80
2023-04-04T07:34:40.186Z,3.83
2023-04-04T07:37:08.227Z,3.83
2023-04-04T07:39:36.651Z,3.13
2023-04-04T07:42:05.893Z,3.53
2023-04-04T07:44:33.650Z,3.97
2023-04-04T07:47:09.335Z,3.30
2023-04-04T07:49:38.294Z,4.17
2023-04-04T07:52:06.359Z,4.03
2023-04-04T07:54:34.099Z,3.33
2023-04-04T07:57:01.955Z,3.60
2023-04-04T07:59:31.285Z,3.23
2023-04-04T08:01:59.059Z,3.30
2023-04-04T08:04:26.840Z,3.03
2023-04-04T08:06:54.516Z,2.93
2023-04-04T08:09:22.257Z,2.63
2023-04-04T08:11:50.062Z,3.43
2023-04-04T08:14:17.807Z,3.15
2023-04-04T08:16:47.221Z,2.53
2023-04-04T08:19:16.492Z,2.83
2023-04-04T08:21:44.702Z,3.00
2023-04-04T08:24:12.987Z,2.90
2023-04-04T08:26:41.485Z,2.90
2023-04-04T08:29:10.142Z,3.13
2023-04-04T08:31:38.096Z,2.67
2023-04-04T08:34:08.224Z,2.97
2023-04-04T08:36:36.033Z,2.87
2023-04-04T08:39:04.105Z,2.53
2023-04-04T08:41:34.828Z,2.87
2023-04-04T08:44:05.400Z,2.67
2023-04-04T08:46:33.374Z,2.60
2023-04-04T08:49:03.986Z,2.67
2023-04-04T08:51:34.257Z,2.67
2023-04-04T08:54:03.004Z,2.60
2023-04-04T08:56:30.816Z,2.30
2023-04-04T08:58:59.100Z,2.20
2023-04-04T09:01:29.668Z,2.40
2023-04-04T09:03:58.396Z,2.73
2023-04-04T09:06:27.657Z,2.33
2023-04-04T09:08:57.783Z,2.10
2023-04-04T09:11:27.340Z,2.40
2023-04-04T09:13:57.161Z,1.90
2023-04-04T09:16:25.369Z,2.20
2023-04-04T09:18:53.355Z,2.97
2023-04-04T09:21:21.423Z,2.00
2023-04-04T09:23:58.716Z,2.47
2023-04-04T09:26:27.825Z,2.80
2023-04-04T09:28:56.131Z,2.00
2023-04-04T09:31:25.846Z,2.00
2023-04-04T09:33:53.652Z,2.70
2023-04-04T09:36:21.699Z,1.97
2023-04-04T09:38:54.253Z,2.30
2023-04-04T09:41:22.217Z,2.90
2023-04-04T09:43:52.230Z,2.33
2023-04-04T09:46:20.767Z,2.20
2023-04-04T09:48:51.342Z,2.60
2023-04-04T09:51:19.041Z,2.00
2023-04-04T09:53:49.411Z,2.50
2023-04-04T09:56:17.149Z,2.77
2023-04-04T09:59:02.729Z,2.87
2023-04-04T10:01:33.801Z,2.40
2023-04-04T10:04:01.627Z,2.07
2023-04-04T10:06:31.629Z,3.20
2023-04-04T10:08:59.786Z,2.50
2023-04-04T10:11:33.335Z,2.40
2023-04-04T10:14:02.668Z,2.73
2023-04-04T10:16:37.560Z,2.67
2023-04-04T10:19:07.303Z,2.23
2023-04-04T10:21:35.632Z,2.07
2023-04-04T10:24:09.194Z,1.93
2023-04-04T10:26:37.712Z,3.40
2023-04-04T10:29:06.500Z,2.30
2023-04-04T10:31:40.801Z,2.35
2023-04-04T10:34:19.115Z,2.20
2023-04-04T10:36:49.988Z,2.40
2023-04-04T10:39:24.938Z,2.40
2023-04-04T10:41:53.794Z,2.00
2023-04-04T10:44:28.183Z,2.70
2023-04-04T10:46:59.610Z,2.40
2023-04-04T10:49:29.696Z,2.43
2023-04-04T10:51:58.157Z,2.57
2023-04-04T10:54:29.016Z,2.97
2023-04-04T10:57:00.804Z,2.07
2023-04-04T10:59:28.808Z,2.27
2023-04-04T11:01:59.555Z,2.70
2023-04-04T11:04:33.787Z,2.47
2023-04-04T11:07:16.273Z,2.40
2023-04-04T11:09:57.768Z,2.77
2023-04-04T11:12:31.389Z,2.20
2023-04-04T11:15:10.654Z,2.17
2023-04-04T11:17:59.411Z,2.20
2023-04-04T11:20:35.528Z,2.33
2023-04-04T11:23:08.913Z,2.40
2023-04-04T11:25:41.621Z,2.30
2023-04-04T11:28:15.801Z,2.10
2023-04-04T11:30:51.176Z,2.53
2023-04-04T11:33:28.682Z,2.67
2023-04-04T11:36:01.576Z,2.87
2023-04-04T11:38:30.811Z,2.57
2023-04-04T11:40:58.765Z,1.80
2023-04-04T11:43:28.560Z,2.40
2023-04-04T11:46:08.259Z,3.03
2023-04-04T11:48:39.513Z,2.00
2023-04-04T11:51:08.392Z,1.77
2023-04-04T11:53:36.124Z,2.00
2023-04-04T11:56:03.999Z,2.20
2023-04-04T11:58:36.991Z,3.03
2023-04-04T12:01:05.364Z,2.30
2023-04-04T12:03:33.437Z,2.43
2023-04-04T12:06:03.244Z,1.67
2023-04-04T12:08:33.576Z,1.40
2023-04-04T12:11:06.557Z,2.40
2023-04-04T12:13:34.659Z,2.43
2023-04-04T12:16:03.683Z,1.80
2023-04-04T12:18:31.407Z,2.20
2023-04-04T12:20:59.264Z,2.30
2023-04-04T12:23:28.603Z,1.83
2023-04-04T12:25:57.858Z,1.60
2023-04-04T12:28:27.275Z,2.30
2023-04-04T12:30:56.680Z,1.83
2023-04-04T12:33:24.464Z,1.97
2023-04-04T12:35:53.519Z,1.90
2023-04-04T12:38:21.417Z,2.33
2023-04-04T12:40:52.627Z,1.80
2023-04-04T12:43:20.812Z,1.70
2023-04-04T12:45:51.408Z,1.60
2023-04-04T12:48:21.148Z,2.30
2023-04-04T12:50:53.572Z,2.00
2023-04-04T12:53:28.544Z,1.80
2023-04-04T12:56:05.510Z,2.00
2023-04-04T12:58:35.980Z,2.00
2023-04-04T13:01:05.182Z,2.10
2023-04-04T13:03:35.316Z,2.10
2023-04-04T13:06:03.731Z,1.50
2023-04-04T13:08:31.683Z,1.80
2023-04-04T13:11:06.269Z,2.13
2023-04-04T13:13:35.783Z,1.60
2023-04-04T13:16:04.393Z,1.90
2023-04-04T13:18:38.374Z,1.67
2023-04-04T13:21:08.413Z,2.40
2023-04-04T13:23:37.484Z,2.40
2023-04-04T13:26:08.022Z,1.73
2023-04-04T13:28:36.421Z,2.00
2023-04-04T13:31:05.046Z,1.83
2023-04-04T13:33:32.924Z,2.17
2023-04-04T13:36:01.226Z,2.30
2023-04-04T13:38:29.854Z,1.90
2023-04-04T13:40:59.294Z,1.80
2023-04-04T13:43:28.977Z,2.30
2023-04-04T13:45:56.755Z,1.73
2023-04-04T13:48:24.648Z,2.07
2023-04-04T13:50:53.107Z,1.80
2023-04-04T13:53:21.280Z,2.20
2023-04-04T13:58:20.645Z,1.77
2023-04-04T14:00:50.786Z,2.10
2023-04-04T14:03:18.734Z,2.10
2023-04-04T14:05:46.793Z,2.00
2023-04-04T14:08:14.665Z,2.10
2023-04-04T14:10:42.564Z,2.20
2023-04-04T14:13:10.640Z,2.53
2023-04-04T14:15:39.749Z,2.57
2023-04-04T14:18:09.178Z,1.90
2023-04-04T14:20:37.994Z,2.17
2023-04-04T14:23:05.819Z,2.10
2023-04-04T14:25:33.640Z,2.20
2023-04-04T14:28:01.378Z,1.90
2023-04-04T14:30:29.084Z,2.00
2023-04-04T14:32:56.764Z,2.23
2023-04-04T14:35:25.939Z,2.27
2023-04-04T14:37:55.187Z,2.00
2023-04-04T14:40:23.626Z,2.10
2023-04-04T14:42:51.488Z,2.30
2023-04-04T14:45:19.469Z,1.80
2023-04-04T14:47:47.241Z,2.60
2023-04-04T14:50:15.041Z,2.47
2023-04-04T14:52:44.056Z,1.93
2023-04-04T14:55:12.294Z,2.00
2023-04-04T14:57:57.195Z,2.07
2023-04-04T15:00:28.492Z,1.83
2023-04-04T15:02:56.425Z,1.90
2023-04-04T15:05:25.952Z,2.50
2023-04-04T15:07:55.518Z,2.00
2023-04-04T15:10:23.759Z,1.93
2023-04-04T15:12:51.519Z,1.63
2023-04-04T15:15:19.708Z,1.87
2023-04-04T15:17:48.559Z,2.50
2023-04-04T15:20:16.635Z,2.00
2023-04-04T15:22:44.705Z,1.70
2023-04-04T15:25:14.036Z,1.55
2023-04-04T15:27:41.889Z,1.70
2023-04-04T15:30:10.598Z,2.00
2023-04-04T15:32:38.424Z,2.33
2023-04-04T15:35:07.211Z,2.23
2023-04-04T15:37:34.899Z,2.00
2023-04-04T15:40:02.648Z,2.53
2023-04-04T15:42:31.820Z,2.60
2023-04-04T15:44:59.564Z,2.23
2023-04-04T15:47:27.258Z,2.40
2023-04-04T15:49:54.920Z,2.40
2023-04-04T15:52:22.690Z,2.90
2023-04-04T15:54:50.514Z,3.10
2023-04-04T15:57:18.209Z,2.10
2023-04-04T15:59:48.739Z,2.20
2023-04-04T16:02:17.122Z,2.80
2023-04-04T16:04:44.846Z,1.70
2023-04-04T16:07:18.040Z,3.20
2023-04-04T16:09:45.989Z,4.03
2023-04-04T16:12:13.702Z,2.20
2023-04-04T16:14:41.442Z,1.90
2023-04-04T16:17:14.658Z,2.27
2023-04-04T16:19:42.388Z,2.10
2023-04-04T16:22:10.214Z,2.00
2023-04-04T16:24:38.488Z,2.00
2023-04-04T16:27:07.472Z,2.77
2023-04-04T16:29:35.225Z,2.50
2023-04-04T16:32:05.651Z,1.63
2023-04-04T16:34:35.728Z,2.33
2023-04-04T16:37:05.186Z,2.30
2023-04-04T16:39:32.903Z,2.57
2023-04-04T16:42:01.335Z,2.27
2023-04-04T16:44:29.051Z,1.60
2023-04-04T16:46:56.831Z,2.20
2023-04-04T16:49:24.634Z,2.10
2023-04-04T16:51:53.722Z,2.40
2023-04-04T16:54:28.870Z,2.33
2023-04-04T16:56:56.553Z,2.37
2023-04-04T16:59:24.264Z,2.47
2023-04-04T17:01:53.974Z,2.10
2023-04-04T17:04:21.654Z,2.60
2023-04-04T17:06:49.443Z,2.50
2023-04-04T17:09:18.491Z,2.80
2023-04-04T17:11:46.975Z,3.00
2023-04-04T17:14:14.849Z,2.20
2023-04-04T17:16:43.151Z,2.33
2023-04-04T17:19:10.927Z,2.10
2023-04-04T17:21:38.643Z,2.80
2023-04-04T17:24:06.562Z,2.30
2023-04-04T17:26:35.894Z,2.40
2023-04-04T17:29:03.685Z,2.60
2023-04-04T17:31:31.912Z,2.97
2023-04-04T17:33:59.614Z,2.23
2023-04-04T17:36:27.902Z,4.00
2023-04-04T17:38:55.954Z,6.17
2023-04-04T17:41:23.685Z,3.07
2023-04-04T17:44:01.824Z,5.40
2023-04-04T17:46:29.688Z,2.60
2023-04-04T17:48:57.443Z,2.30
2023-04-04T17:51:25.293Z,2.20
2023-04-04T17:53:53.008Z,2.10
2023-04-04T17:56:20.988Z,2.80
2023-04-04T17:58:48.706Z,2.60
2023-04-04T18:01:18.680Z,2.50
2023-04-04T18:03:46.674Z,2.40
2023-04-04T18:06:14.503Z,2.40
2023-04-04T18:08:43.459Z,2.10
2023-04-04T18:11:11.527Z,2.17
2023-04-04T18:13:39.512Z,3.50
2023-04-04T18:16:07.795Z,2.93
2023-04-04T18:18:37.453Z,2.30
2023-04-04T18:21:05.326Z,2.20
2023-04-04T18:23:33.042Z,2.17
2023-04-04T18:26:01.641Z,2.40
2023-04-04T18:28:29.327Z,2.13
2023-04-04T18:30:57.179Z,2.27
2023-04-04T18:33:26.450Z,2.10
2023-04-04T18:35:55.833Z,1.93
2023-04-04T18:38:25.058Z,2.20
2023-04-04T18:40:53.083Z,2.30
2023-04-04T18:43:20.785Z,2.03
2023-04-04T18:45:48.764Z,2.20
2023-04-04T18:48:16.736Z,2.10
2023-04-04T18:50:45.561Z,2.90
2023-04-04T18:53:14.598Z,2.15
2023-04-04T18:55:42.286Z,2.20
2023-04-04T18:58:10.068Z,2.80
2023-04-04T19:00:37.863Z,2.87
2023-04-04T19:03:07.567Z,2.90
2023-04-04T19:05:38.003Z,2.70
2023-04-04T19:08:08.290Z,2.30
2023-04-04T19:10:38.840Z,2.60
2023-04-04T19:13:06.741Z,2.30
2023-04-04T19:15:34.796Z,2.50
2023-04-04T19:18:02.534Z,2.30
2023-04-04T19:20:30.216Z,2.70
2023-04-04T19:22:57.894Z,3.40
2023-04-04T19:25:25.622Z,2.40
2023-04-04T19:27:54.703Z,2.37
2023-04-04T19:30:44.034Z,2.13
2023-04-04T19:33:12.343Z,2.80
2023-04-04T19:35:53.303Z,2.53
2023-04-04T19:38:24.322Z,2.50
2023-04-04T19:40:55.761Z,2.40
2023-04-04T19:43:24.958Z,2.53
2023-04-04T19:45:53.889Z,3.90
2023-04-04T19:48:46.693Z,2.60
2023-04-04T19:51:47.058Z,3.00
2023-04-04T19:54:16.032Z,2.25
2023-04-04T19:56:47.124Z,2.30
2023-04-04T20:00:06.903Z,2.80
2023-04-04T20:02:59.915Z,2.65
2023-04-04T20:06:03.750Z,2.57
2023-04-04T20:08:37.100Z,2.37
2023-04-04T20:11:08.024Z,3.43
2023-04-04T20:13:37.339Z,2.73
2023-04-04T20:16:10.522Z,3.20
2023-04-04T20:18:42.211Z,3.10
2023-04-04T20:21:12.204Z,2.67
2023-04-04T20:23:45.818Z,3.30
2023-04-04T20:26:29.015Z,3.30
2023-04-04T20:28:56.673Z,3.43
2023-04-04T20:31:24.371Z,3.40
2023-04-04T20:33:53.832Z,3.37
2023-04-04T20:36:33.515Z,3.43
2023-04-04T20:39:01.712Z,3.60
2023-04-04T20:41:29.698Z,3.13
2023-04-04T20:43:58.816Z,2.53
2023-04-04T20:46:28.147Z,3.60
2023-04-04T20:48:57.547Z,3.13
2023-04-04T20:51:28.094Z,3.87
2023-04-04T20:53:58.829Z,3.20
2023-04-04T20:56:52.244Z,3.90
2023-04-04T20:59:29.658Z,3.40
2023-04-04T21:02:07.045Z,3.90
2023-04-04T21:04:36.646Z,4.70
2023-04-04T21:07:06.408Z,4.50
2023-04-04T21:09:34.229Z,3.77
2023-04-04T21:12:02.693Z,4.18
2023-04-04T21:14:37.145Z,3.90
2023-04-04T21:17:07.264Z,4.87
2023-04-04T21:19:36.305Z,4.53
2023-04-04T21:22:06.671Z,4.80
2023-04-04T21:24:36.570Z,4.93
2023-04-04T21:27:07.739Z,4.70
2023-04-04T21:29:35.419Z,4.93
2023-04-04T21:32:03.984Z,4.60
2023-04-04T21:34:32.431Z,4.97
2023-04-04T21:37:03.581Z,4.43
2023-04-04T21:39:31.872Z,4.77
2023-04-04T21:42:01.269Z,4.80
2023-04-04T21:44:29.228Z,4.40
2023-04-04T21:46:57.124Z,4.87
2023-04-04T21:49:26.067Z,5.00
2023-04-04T21:51:54.150Z,5.87
2023-04-04T21:54:26.911Z,5.30
2023-04-04T21:56:54.604Z,4.77
2023-04-04T21:59:24.646Z,4.87
2023-04-04T22:01:52.442Z,4.93
2023-04-04T22:04:20.476Z,4.87
2023-04-04T22:06:48.189Z,5.00
2023-04-04T22:09:18.238Z,3.83
2023-04-04T22:11:49.426Z,4.53
2023-04-04T22:14:18.414Z,5.60
2023-04-04T22:16:46.501Z,4.67
2023-04-04T22:19:14.319Z,5.00
2023-04-04T22:21:47.898Z,4.00
2023-04-04T22:24:17.650Z,5.03
2023-04-04T22:26:47.224Z,3.83
2023-04-04T22:29:14.912Z,4.70
2023-04-04T22:31:42.983Z,4.93
2023-04-04T22:34:12.531Z,4.37
2023-04-04T22:36:42.028Z,4.30
2023-04-04T22:39:09.892Z,4.80
2023-04-04T22:41:37.552Z,4.30
2023-04-04T22:44:06.615Z,5.23
2023-04-04T22:46:34.670Z,5.03
2023-04-04T22:49:06.957Z,5.13
2023-04-04T22:51:42.918Z,5.17
2023-04-04T22:54:12.892Z,5.10
2023-04-04T22:56:40.837Z,5.80
2023-04-04T22:59:09.934Z,4.90
2023-04-04T23:01:37.716Z,5.37
2023-04-04T23:04:05.908Z,4.50
2023-04-04T23:06:33.659Z,4.50
2023-04-04T23:09:01.983Z,5.27
2023-04-04T23:11:31.268Z,4.90
2023-04-04T23:13:59.146Z,4.90
2023-04-04T23:16:28.707Z,5.20
2023-04-04T23:18:56.927Z,4.77
2023-04-04T23:21:24.865Z,5.17
2023-04-04T23:23:52.611Z,5.30
2023-04-04T23:26:20.300Z,5.20
2023-04-04T23:28:48.004Z,5.20
2023-04-04T23:31:16.162Z,4.60
2023-04-04T23:33:45.296Z,4.90
2023-04-04T23:36:13.097Z,4.37
2023-04-04T23:38:40.857Z,5.07
2023-04-04T23:41:08.825Z,4.80
2023-04-04T23:43:36.575Z,4.40
2023-04-04T23:46:04.542Z,5.10
2023-04-04T23:48:32.471Z,4.80
2023-04-04T23:51:03.694Z,4.83
2023-04-04T23:53:31.430Z,5.00
2023-04-04T23:55:59.114Z,4.40
2023-04-04T23:58:26.801Z,4.30
